Hickson, North Dakota
Current Conditions -  °F | °C
As of 6:11 PM on Monday 22 Dec 2014 (Local Time) from KJKJ Reporting Station
Overcast Overcast  
Wind Chill: 33°   Ceiling: 2300
Heat Index: 37°   Visibility: 10mi
Dew Point: 37°   Wind: 6mph
Humidity: 100%   Direction: 80°E
Pressure: 29.61"   Gusts: NA
Location:  46.7039°N, 96.8572°W
Report Text: KJKJ 230011Z AUTO 08005KT 10SM OVC023 03/03 A2961 RMK AO2
Loading
Personal Weather Stations






























Interactive Weather Map New forecast layout! Learn more

10-Day Weather Forecast

Advertisements
Track Severe Weather on mobile